FMEE Airport Information

Runway Information
Runway 12 Length 10499 ft width 148 ft
Elevation 38 ft Threshold 398 ft Heading 102
Runway 30 Length 10499 ft Width 148 ft
Elevation 31 ft Threshold 0 ft Heading 282
Runway 14 Length 8760 ft width 148 ft
Elevation 27 ft Threshold 328 ft Heading 116
Runway 32 Length 8760 ft Width 148 ft
Elevation 65 ft Threshold 1165 ft Heading 296
Airport Frequencies
Type A/G Name GILLOT RDO Frequency 347.6 MHZ
Type APP Name GILLOT APP Frequency 119.4 MHZ
Type ATIS Name ATIS Frequency 126.8 MHZ
Type GND Name GILLOT GND Frequency 121.9 MHZ
Type TWR Name GILLOT TWR Frequency 118.4 MHZ
Airport Navaids
Type NDB Name St Denis Gillot Frequency 382 KHZ
Type VOR-DME Name St Denis Gillot Frequency 112900 KHZ
Airport Weather Information & NOTAM
ADDS - METARS form results

(1045 UTC 22 October 2019)
Data provider http://aviationweather.gov/metar/data/
 
METAR text: FMEE 221030Z AUTO VRB05KT 9999 SCT016 BKN022 OVC036 26/22 Q1014 TEMPO 3500 SHRA SCT013TCU
Conditions at: FMEE (ST. DENIS/GILLOT, FR) observed 1030 UTC 22 October 2019
Temperature: 26.0°C (79°F)
Dewpoint: 22.0°C (72°F) [RH = 79%]
Pressure (altimeter): 29.94 inches Hg (1014.0 mb)
Winds: variable direction winds at 6 MPH (5 knots; 2.6 m/s)
Visibility: 6 or more miles (10+ km)
Ceiling: 2200 feet AGL
Clouds: scattered clouds at 1600 feet AGL
broken clouds at 2200 feet AGL
overcast cloud deck at 3600 feet AGL
Weather: no significant weather observed at this time

METAR text: FMEE 221000Z AUTO 13004KT 070V220 8000 -RA BKN016 BKN023 OVC033 25/22 Q1014 TEMPO 3500 SHRA SCT013TCU
Conditions at: FMEE (ST. DENIS/GILLOT, FR) observed 1000 UTC 22 October 2019
Temperature: 25.0°C (77°F)
Dewpoint: 22.0°C (72°F) [RH = 83%]
Pressure (altimeter): 29.94 inches Hg (1014.0 mb)
Winds: from the SE (130 degrees) at 5 MPH (4 knots; 2.1 m/s)
Visibility: 5 miles ( 8 km)
Ceiling: 1600 feet AGL
Clouds: broken clouds at 1600 feet AGL
broken clouds at 2300 feet AGL
overcast cloud deck at 3300 feet AGL
Weather: -RA  (light rain)

Forecast for: FMEE (ST. DENIS/GILLOT, FR)
Text: FMEE 220500Z 2206/2312 03008KT 9999 FEW018 BKN030
Forecast period: 0600 UTC 22 October 2019 to 1200 UTC 23 October 2019
Forecast type: FROM: standard forecast or significant change
Winds: from the NNE (30 degrees) at 9 MPH (8 knots; 4.1 m/s)
Visibility: 6 or more miles 10+ km)
Ceiling: 3000 feet AGL
Clouds: few clouds at 1800 feet AGL
broken clouds at 3000 feet AGL
Weather: no significant weather forecast for this period
Text: TEMPO 2206/2215 3500 SHRA SCT013TCU
Forecast period: 0600 to 1500 UTC 22 October 2019
Forecast type: TEMPORARY: The following changes expected for less than half the time period
Visibility: 2.17 miles (3.49 km)
Ceiling: at least 12,000 feet AGL
Clouds: scattered clouds at 1300 feet AGL
Weather: SHRA  (rain showers)